Time;durP1;ratioP1;P1;durP2;ratioP2;P2;SDS_P1;SDS_P2;PMS_P1;PMS_P2;Temp;Humidity;BMP_temperature;BMP_pressure;BME280_temperature;BME280_humidity;BME280_pressure;Samples;Min_cycle;Max_cycle;Signal;HPM_P1;HPM_P2
2023/07/29 00:04:53;;;;;;;2.47;2.10;;;;;;;19.23;75.39;99600.59;10123297;29;20072;-74
2023/07/29 00:09:56;;;;;;;1.77;1.65;;;;;;;19.38;74.81;99607.78;10121907;29;20052;-76
2023/07/29 00:14:59;;;;;;;3.70;2.10;;;;;;;19.32;75.01;99603.16;10112414;29;20056;-75
2023/07/29 00:20:05;;;;;;;2.50;2.00;;;;;;;19.43;74.52;99605.28;10119315;29;20048;-75
2023/07/29 00:25:11;;;;;;;2.38;1.90;;;;;;;19.23;74.90;99607.91;10108706;29;20139;-74
2023/07/29 00:30:14;;;;;;;3.00;1.70;;;;;;;19.32;74.50;99603.16;10114025;29;20052;-76
2023/07/29 00:35:19;;;;;;;1.70;1.60;;;;;;;19.38;74.17;99597.72;10131436;29;20373;-75
2023/07/29 00:40:23;;;;;;;3.78;1.90;;;;;;;19.26;75.04;99601.22;10119748;29;20047;-75
2023/07/29 00:45:27;;;;;;;2.55;2.13;;;;;;;19.14;75.56;99581.88;10122377;29;20119;-76
2023/07/29 00:50:33;;;;;;;2.17;2.08;;;;;;;19.15;75.72;99600.75;10114167;29;20048;-74
2023/07/29 00:55:36;;;;;;;2.90;2.58;;;;;;;19.23;75.31;99606.03;10110063;29;20065;-75
2023/07/29 01:00:39;;;;;;;2.53;2.30;;;;;;;18.88;76.91;99588.00;10114015;29;20889;-74
2023/07/29 01:05:58;;;;;;;2.10;1.90;;;;;;;18.83;76.94;99587.72;10114175;29;20048;-76
2023/07/29 01:11:09;;;;;;;2.60;2.40;;;;;;;19.25;75.36;99573.13;10113993;29;20213;-76
2023/07/29 01:16:18;;;;;;;2.10;1.90;;;;;;;19.11;75.37;99574.94;10118646;29;20158;-75
2023/07/29 01:21:22;;;;;;;2.58;2.28;;;;;;;19.08;75.71;99569.91;10113908;29;20413;-75
2023/07/29 01:26:29;;;;;;;2.50;2.17;;;;;;;19.15;75.59;99562.63;10105970;29;20064;-77
2023/07/29 01:31:35;;;;;;;2.08;1.95;;;;;;;18.94;76.15;99568.97;10111217;29;20083;-73
2023/07/29 01:36:40;;;;;;;2.42;2.22;;;;;;;18.95;75.98;99581.56;10109643;29;20119;-75
2023/07/29 01:41:46;;;;;;;2.67;2.30;;;;;;;19.08;75.58;99571.78;10112804;29;20520;-76
2023/07/29 01:46:50;;;;;;;2.30;2.13;;;;;;;18.94;76.35;99563.53;10110670;29;20530;-75
2023/07/29 01:51:53;;;;;;;2.90;2.70;;;;;;;19.05;75.99;99555.84;10126718;29;20164;-74
2023/07/29 01:56:57;;;;;;;2.55;2.35;;;;;;;19.01;76.00;99560.88;10109303;29;20083;-74
2023/07/29 02:02:00;;;;;;;4.28;2.45;;;;;;;19.06;76.00;99549.38;10108952;29;20056;-75
2023/07/29 02:07:03;;;;;;;2.83;2.63;;;;;;;19.03;76.32;99561.50;10109530;29;20063;-75
2023/07/29 02:12:08;;;;;;;2.85;2.67;;;;;;;19.04;76.13;99554.19;10115606;29;20541;-76
2023/07/29 02:17:13;;;;;;;3.55;2.75;;;;;;;18.85;76.71;99544.84;10119622;29;20056;-74
2023/07/29 02:22:17;;;;;;;3.90;3.42;;;;;;;18.92;76.86;99543.84;10116411;29;20137;-74
2023/07/29 02:27:22;;;;;;;2.97;2.78;;;;;;;18.68;78.27;99539.69;10109157;29;20067;-74
2023/07/29 02:32:25;;;;;;;2.95;2.72;;;;;;;18.93;77.61;99550.16;10133972;29;20064;-77
2023/07/29 02:37:28;;;;;;;2.70;2.50;;;;;;;18.76;78.15;99544.13;10117585;29;21025;-75
2023/07/29 02:42:33;;;;;;;5.15;3.17;;;;;;;18.73;78.75;99547.22;10114500;29;20079;-76
2023/07/29 02:47:37;;;;;;;3.55;2.60;;;;;;;18.65;79.18;99555.53;10114500;29;20251;-76
2023/07/29 02:52:40;;;;;;;3.00;2.78;;;;;;;18.47;80.28;99545.16;10140064;29;20534;-75
2023/07/29 02:57:44;;;;;;;3.10;2.90;;;;;;;18.48;80.46;99536.78;10122893;29;20052;-76
2023/07/29 03:02:47;;;;;;;3.30;3.10;;;;;;;18.58;80.08;99531.03;10116947;29;20048;-75
2023/07/29 03:07:50;;;;;;;3.13;2.92;;;;;;;18.56;79.90;99522.22;10116905;29;20609;-74
2023/07/29 03:12:56;;;;;;;3.63;2.90;;;;;;;18.43;80.40;99530.25;10119853;29;20056;-75
2023/07/29 03:17:59;;;;;;;2.67;2.47;;;;;;;18.55;80.09;99517.81;10119600;29;20044;-74
2023/07/29 03:23:02;;;;;;;2.78;2.58;;;;;;;18.54;80.23;99518.84;10111695;29;20063;-73
2023/07/29 03:28:07;;;;;;;3.55;2.22;;;;;;;18.57;79.89;99513.88;10112505;29;20052;-76
2023/07/29 03:33:09;;;;;;;2.40;2.00;;;;;;;18.63;79.58;99514.94;10120658;29;20056;-76
2023/07/29 03:38:13;;;;;;;5.57;2.33;;;;;;;18.66;79.35;99511.84;10119951;29;20262;-77
2023/07/29 03:43:17;;;;;;;2.10;2.00;;;;;;;18.70;78.91;99507.66;10115088;29;20448;-75
2023/07/29 03:48:20;;;;;;;3.40;3.20;;;;;;;18.77;78.97;99510.44;10109498;29;20052;-75
2023/07/29 03:53:23;;;;;;;2.40;2.22;;;;;;;18.86;78.46;99511.16;10110346;29;20059;-75
2023/07/29 03:58:27;;;;;;;2.92;2.63;;;;;;;18.94;77.99;99517.28;10109680;29;20583;-75
2023/07/29 04:03:30;;;;;;;2.53;2.33;;;;;;;18.99;78.20;99503.91;10122038;29;20110;-76
2023/07/29 04:08:34;;;;;;;2.78;2.58;;;;;;;19.05;77.68;99510.44;10119243;29;20064;-75
2023/07/29 04:13:38;;;;;;;2.38;2.28;;;;;;;19.07;77.75;99508.34;10107911;29;20059;-75
2023/07/29 04:18:41;;;;;;;2.72;2.33;;;;;;;19.03;78.03;99496.19;10115456;29;20527;-74
2023/07/29 04:23:44;;;;;;;2.72;2.53;;;;;;;19.09;78.20;99508.13;10108383;29;20051;-75
2023/07/29 04:28:48;;;;;;;2.88;2.67;;;;;;;19.17;77.76;99491.63;10125505;29;20056;-75
2023/07/29 04:33:51;;;;;;;3.00;2.67;;;;;;;19.27;77.74;99496.72;10122383;29;20052;-76
2023/07/29 04:38:53;;;;;;;2.38;2.28;;;;;;;19.32;76.95;99499.69;10111109;29;20067;-75
2023/07/29 04:43:58;;;;;;;4.40;2.60;;;;;;;19.26;76.51;99490.44;10121545;29;20059;-76
2023/07/29 04:49:00;;;;;;;3.03;2.83;;;;;;;19.24;76.27;99487.06;10120013;29;20059;-75
2023/07/29 04:54:04;;;;;;;3.92;2.65;;;;;;;19.15;76.48;99494.59;10110404;29;20059;-75
2023/07/29 04:59:08;;;;;;;2.85;2.70;;;;;;;19.13;76.96;99487.66;10108055;29;20123;-74
2023/07/29 05:04:11;;;;;;;4.30;3.45;;;;;;;19.24;76.91;99489.81;10107239;29;20526;-76
2023/07/29 05:09:16;;;;;;;2.88;2.67;;;;;;;19.33;76.69;99487.72;10114798;29;20052;-76
2023/07/29 05:14:20;;;;;;;2.72;2.53;;;;;;;19.45;76.88;99477.97;10109435;29;20044;-75
2023/07/29 05:19:23;;;;;;;3.90;2.55;;;;;;;19.53;76.71;99477.78;10115803;29;20516;-74
2023/07/29 05:24:26;;;;;;;3.35;2.45;;;;;;;19.44;77.56;99485.28;10109859;29;20654;-75
2023/07/29 05:29:30;;;;;;;4.53;3.13;;;;;;;19.27;77.96;99478.50;10105479;29;20637;-74
2023/07/29 05:34:34;;;;;;;3.60;2.33;;;;;;;19.45;77.63;99475.22;10116880;29;20581;-75
2023/07/29 05:39:37;;;;;;;4.00;2.38;;;;;;;19.63;76.91;99471.94;10113416;29;20075;-75
2023/07/29 05:44:41;;;;;;;2.72;2.53;;;;;;;19.67;76.63;99490.41;10121380;29;20084;-75
2023/07/29 05:49:44;;;;;;;3.40;2.40;;;;;;;19.68;76.65;99486.63;10124366;29;20052;-75
2023/07/29 05:54:47;;;;;;;2.80;2.60;;;;;;;19.78;76.37;99475.34;10116854;29;20122;-74
2023/07/29 05:59:52;;;;;;;4.00;2.13;;;;;;;19.76;76.41;99471.16;10119072;29;20449;-75
2023/07/29 06:04:55;;;;;;;2.50;2.30;;;;;;;19.82;76.13;99464.88;10118187;29;20056;-75
2023/07/29 06:09:58;;;;;;;2.60;2.40;;;;;;;19.83;76.49;99472.84;10123604;29;20088;-75
2023/07/29 06:15:02;;;;;;;3.38;2.40;;;;;;;19.68;76.67;99494.81;10119579;29;20048;-76
2023/07/29 06:20:06;;;;;;;2.30;2.10;;;;;;;19.72;76.58;99494.38;10117989;29;20508;-75
2023/07/29 06:25:10;;;;;;;2.08;1.98;;;;;;;19.61;76.99;99495.81;10132189;29;20907;-75
2023/07/29 06:30:15;;;;;;;2.38;2.20;;;;;;;19.27;78.80;99502.16;10137837;29;20643;-75
2023/07/29 06:35:18;;;;;;;5.20;2.13;;;;;;;19.54;77.57;99506.69;10118782;29;20056;-75
2023/07/29 06:40:21;;;;;;;2.72;2.30;;;;;;;19.68;77.64;99505.69;10119872;29;20059;-76
2023/07/29 06:45:25;;;;;;;4.28;2.80;;;;;;;19.96;76.75;99490.25;10121062;29;20439;-74
2023/07/29 06:50:28;;;;;;;4.07;2.75;;;;;;;20.23;75.30;99448.31;10125638;29;21795;-75
2023/07/29 06:55:31;;;;;;;3.80;3.50;;;;;;;20.16;74.94;99482.94;10116018;29;20056;-77
2023/07/29 07:00:35;;;;;;;4.30;3.90;;;;;;;20.28;74.61;99484.00;10115622;29;20060;-76
2023/07/29 07:05:38;;;;;;;3.85;3.35;;;;;;;20.18;75.54;99501.81;10123453;29;20059;-77
2023/07/29 07:10:41;;;;;;;4.20;3.80;;;;;;;20.00;76.33;99510.59;10121001;29;20055;-76
2023/07/29 07:15:46;;;;;;;7.13;6.03;;;;;;;19.56;78.74;99526.41;10123187;29;20064;-76
2023/07/29 07:20:49;;;;;;;7.97;7.20;;;;;;;19.60;78.20;99544.00;10121860;29;20580;-77
2023/07/29 07:25:52;;;;;;;10.48;8.98;;;;;;;19.78;77.61;99529.84;10122168;29;20060;-76
2023/07/29 07:30:56;;;;;;;14.15;11.82;;;;;;;20.09;76.34;99528.44;10120735;29;20053;-76
2023/07/29 07:35:59;;;;;;;19.67;14.85;;;;;;;19.41;80.78;99531.13;10121772;29;20055;-76
2023/07/29 07:41:02;;;;;;;25.73;17.17;;;;;;;17.82;100.00;99538.84;10135077;29;20052;-75
2023/07/29 07:46:06;;;;;;;27.17;19.23;;;;;;;17.57;100.00;99535.63;10144123;29;20052;-80
2023/07/29 07:51:13;;;;;;;27.48;22.15;;;;;;;18.10;98.84;99530.78;10126830;29;20068;-78
2023/07/29 07:56:16;;;;;;;23.90;19.52;;;;;;;18.66;95.23;99536.31;10137643;29;20052;-77
2023/07/29 08:01:20;;;;;;;20.58;18.27;;;;;;;19.01;96.21;99520.88;10121138;29;20048;-79
2023/07/29 08:06:23;;;;;;;17.52;13.75;;;;;;;18.88;89.51;99530.84;10117202;29;20078;-78
2023/07/29 08:11:26;;;;;;;14.73;12.93;;;;;;;19.15;88.39;99518.25;10120161;29;20052;-77
2023/07/29 08:16:31;;;;;;;9.77;8.43;;;;;;;19.01;82.86;99512.72;10127736;29;20048;-77
2023/07/29 08:21:34;;;;;;;12.00;9.88;;;;;;;19.28;83.19;99523.75;10126422;29;20049;-79
2023/07/29 08:26:37;;;;;;;9.32;8.43;;;;;;;19.49;81.96;99525.50;10139496;29;20052;-78
2023/07/29 08:31:42;;;;;;;5.82;5.28;;;;;;;18.92;78.90;99540.28;10128448;29;20059;-79
2023/07/29 08:36:45;;;;;;;4.80;4.40;;;;;;;19.11;77.72;99539.56;10129201;29;20053;-78
2023/07/29 08:41:55;;;;;;;3.60;3.00;;;;;;;18.66;74.68;99547.19;10128088;29;20057;-78
2023/07/29 08:47:00;;;;;;;4.60;2.92;;;;;;;18.54;72.42;99556.91;10131546;29;20056;-79
2023/07/29 08:52:05;;;;;;;2.75;2.55;;;;;;;19.79;70.13;99550.59;10119213;29;20060;-79
2023/07/29 08:57:08;;;;;;;2.30;2.20;;;;;;;20.19;66.77;99541.69;10121277;29;20063;-79
2023/07/29 09:02:12;;;;;;;2.22;1.65;;;;;;;20.26;65.51;99535.16;10116433;29;20135;-77
2023/07/29 09:07:16;;;;;;;3.80;2.00;;;;;;;21.05;64.23;99538.97;10125618;29;20055;-78
2023/07/29 09:12:19;;;;;;;2.97;1.35;;;;;;;20.77;61.12;99541.91;10123759;29;20279;-77
2023/07/29 09:17:24;;;;;;;1.08;0.98;;;;;;;21.13;56.87;99538.72;10122621;29;20052;-77
2023/07/29 09:22:28;;;;;;;1.38;1.20;;;;;;;21.35;56.47;99531.09;10112854;29;20055;-77
2023/07/29 09:27:32;;;;;;;1.45;1.30;;;;;;;20.76;57.40;99540.22;10119200;29;20059;-77
2023/07/29 09:32:40;;;;;;;1.17;1.08;;;;;;;20.21;58.81;99536.84;10144927;29;21373;-77
2023/07/29 09:37:44;;;;;;;2.70;1.38;;;;;;;20.70;58.89;99547.38;10130257;29;20057;-77
2023/07/29 09:42:52;;;;;;;1.38;1.15;;;;;;;21.35;56.79;99539.28;10125990;29;20063;-77
2023/07/29 09:47:58;;;;;;;1.10;1.02;;;;;;;21.81;55.47;99551.94;10121116;29;20048;-76
2023/07/29 09:53:02;;;;;;;1.75;1.35;;;;;;;22.07;55.05;99558.31;10127559;29;20500;-77
2023/07/29 09:58:08;;;;;;;1.10;1.02;;;;;;;21.80;54.29;99558.50;10125754;29;20059;-76
2023/07/29 10:03:13;;;;;;;0.70;0.60;;;;;;;22.01;54.29;99546.38;10118317;29;20448;-76
2023/07/29 10:08:18;;;;;;;0.73;0.73;;;;;;;21.93;54.51;99554.00;10115694;29;20072;-76
2023/07/29 10:13:22;;;;;;;0.75;0.75;;;;;;;21.77;54.15;99558.91;10123303;29;20526;-76
2023/07/29 10:18:27;;;;;;;0.80;0.70;;;;;;;22.13;53.00;99543.75;10118232;29;20048;-77
2023/07/29 10:23:38;;;;;;;1.00;0.68;;;;;;;22.45;51.67;99538.31;10127146;29;20071;-76
2023/07/29 10:28:47;;;;;;;1.40;0.90;;;;;;;22.85;51.71;99546.19;10124397;29;20426;-76
2023/07/29 10:33:51;;;;;;;0.80;0.80;;;;;;;23.71;49.59;99536.16;10131683;29;20502;-76
2023/07/29 10:38:55;;;;;;;0.70;0.70;;;;;;;23.81;48.52;99536.50;10130356;29;20052;-76
2023/07/29 10:43:58;;;;;;;1.88;0.70;;;;;;;23.75;48.33;99540.97;10126696;29;20055;-77
2023/07/29 10:49:02;;;;;;;1.85;1.38;;;;;;;22.91;50.12;99523.38;10117394;29;20393;-76
2023/07/29 10:54:12;;;;;;;1.02;0.80;;;;;;;22.92;49.34;99525.88;10117533;29;20661;-77
2023/07/29 10:59:34;;;;;;;1.10;0.70;;;;;;;22.47;50.02;99547.16;10123074;29;20047;-77
2023/07/29 11:04:47;;;;;;;1.63;0.47;;;;;;;22.84;49.41;99548.06;10118116;29;20052;-78
2023/07/29 11:10:03;;;;;;;0.60;0.60;;;;;;;23.33;48.78;99540.00;10117175;29;20780;-76
2023/07/29 11:15:14;;;;;;;0.88;0.88;;;;;;;22.81;50.35;99544.94;10118667;29;20047;-77
2023/07/29 11:20:19;;;;;;;0.30;0.30;;;;;;;23.23;49.55;99539.69;10118854;29;20048;-77
2023/07/29 11:25:24;;;;;;;0.80;0.73;;;;;;;23.66;48.50;99551.38;10120566;29;20060;-77
2023/07/29 11:30:29;;;;;;;1.48;0.80;;;;;;;22.14;52.23;99547.34;10123044;29;20056;-78
2023/07/29 11:35:34;;;;;;;0.68;0.68;;;;;;;23.35;49.72;99540.63;10121484;29;20064;-76
2023/07/29 11:40:37;;;;;;;1.55;0.70;;;;;;;24.22;48.76;99537.59;10125414;29;20052;-76
2023/07/29 11:45:41;;;;;;;1.13;0.60;;;;;;;24.38;47.16;99536.06;10116917;29;20111;-77
2023/07/29 11:50:56;;;;;;;0.95;0.70;;;;;;;24.86;45.63;99537.81;10117545;29;20682;-75
2023/07/29 11:55:59;;;;;;;0.75;0.70;;;;;;;24.43;46.07;99527.97;10121501;29;20103;-77
2023/07/29 12:01:02;;;;;;;1.35;0.80;;;;;;;24.90;46.24;99528.88;10115089;29;20424;-76
2023/07/29 12:06:07;;;;;;;0.60;0.60;;;;;;;25.35;44.31;99530.97;10114894;29;20056;-77
2023/07/29 12:11:10;;;;;;;0.65;0.65;;;;;;;24.27;46.79;99535.81;10118253;29;20613;-75
2023/07/29 12:16:17;;;;;;;0.70;0.70;;;;;;;23.90;48.51;99540.56;10118169;29;20056;-75
2023/07/29 12:21:22;;;;;;;0.73;0.70;;;;;;;24.04;47.11;99533.00;10121262;29;20055;-75
2023/07/29 12:26:28;;;;;;;0.80;0.80;;;;;;;25.95;44.61;99510.47;10132992;29;20063;-76
2023/07/29 12:31:38;;;;;;;2.97;1.20;;;;;;;26.46;43.44;99514.13;10131664;29;20056;-76
2023/07/29 12:36:44;;;;;;;0.80;0.80;;;;;;;24.37;46.70;99527.00;10116684;29;20058;-76
2023/07/29 12:41:47;;;;;;;0.75;0.75;;;;;;;24.37;47.09;99535.22;10121588;29;20052;-78
2023/07/29 12:46:50;;;;;;;1.60;1.48;;;;;;;23.46;48.52;99533.53;10112255;29;20068;-77
2023/07/29 12:51:54;;;;;;;3.20;1.17;;;;;;;22.76;50.53;99523.72;10111181;29;20179;-75
2023/07/29 12:56:57;;;;;;;1.20;1.20;;;;;;;24.21;48.33;99525.75;10111625;29;20084;-77
2023/07/29 13:02:00;;;;;;;2.00;1.20;;;;;;;24.93;46.80;99503.66;10114374;29;20048;-76
2023/07/29 13:07:06;;;;;;;0.90;0.90;;;;;;;25.78;44.64;99506.81;10118814;29;20060;-76
2023/07/29 13:12:09;;;;;;;1.77;0.65;;;;;;;26.59;42.97;99498.38;10112578;29;20668;-75
2023/07/29 13:17:12;;;;;;;2.65;0.82;;;;;;;25.76;45.12;99515.34;10122002;29;20281;-76
2023/07/29 13:22:16;;;;;;;0.73;0.73;;;;;;;25.94;43.75;99527.22;10116957;29;20587;-76
2023/07/29 13:27:20;;;;;;;1.75;0.80;;;;;;;25.39;46.33;99517.56;10117232;29;20511;-76
2023/07/29 13:32:22;;;;;;;1.05;0.70;;;;;;;24.18;47.26;99509.75;10113159;29;20063;-77
2023/07/29 13:37:27;;;;;;;1.20;0.80;;;;;;;24.38;47.30;99523.19;10121639;29;20492;-77
2023/07/29 13:42:29;;;;;;;0.73;0.73;;;;;;;25.98;43.75;99531.16;10113404;29;20151;-76
2023/07/29 13:47:32;;;;;;;1.75;1.13;;;;;;;24.80;46.01;99533.28;10118203;29;20187;-77
2023/07/29 13:52:38;;;;;;;1.02;0.80;;;;;;;24.69;46.61;99523.97;10109703;29;20188;-76
2023/07/29 13:57:41;;;;;;;2.97;0.90;;;;;;;26.60;43.81;99511.88;10121188;29;20048;-76
2023/07/29 14:02:43;;;;;;;1.88;0.95;;;;;;;25.22;45.97;99528.47;10110666;29;20053;-77
2023/07/29 14:07:48;;;;;;;4.30;1.05;;;;;;;24.31;48.05;99519.72;10119071;29;20059;-77
2023/07/29 14:12:51;;;;;;;0.80;0.80;;;;;;;25.54;45.50;99526.16;10129025;29;20051;-76
2023/07/29 14:17:54;;;;;;;0.95;0.85;;;;;;;26.03;43.90;99532.09;10129044;29;20048;-77
2023/07/29 14:22:58;;;;;;;0.95;0.85;;;;;;;25.91;44.54;99512.03;10125822;29;20064;-78
2023/07/29 14:28:01;;;;;;;6.47;1.20;;;;;;;25.73;44.67;99517.75;10146947;29;20044;-77
2023/07/29 14:33:04;;;;;;;3.28;1.00;;;;;;;25.13;46.29;99525.28;10126626;29;20074;-76
2023/07/29 14:38:09;;;;;;;0.95;0.90;;;;;;;24.80;46.32;99525.88;10130689;29;20142;-77
2023/07/29 14:43:11;;;;;;;4.43;1.05;;;;;;;24.81;47.26;99545.94;10124553;29;20508;-76
2023/07/29 14:48:14;;;;;;;5.70;1.10;;;;;;;24.06;48.88;99533.59;10122060;29;20055;-77
2023/07/29 14:53:19;;;;;;;3.35;1.45;;;;;;;23.12;50.40;99533.06;10125294;29;20424;-76
2023/07/29 14:58:22;;;;;;;2.33;1.10;;;;;;;22.85;50.76;99532.50;10128933;29;20055;-75
2023/07/29 15:03:25;;;;;;;1.55;1.20;;;;;;;22.08;51.91;99543.59;10123436;29;20056;-76
2023/07/29 15:08:31;;;;;;;1.25;1.10;;;;;;;21.52;57.83;99566.13;10125427;29;20041;-76
2023/07/29 15:13:34;;;;;;;3.38;1.67;;;;;;;17.99;77.88;99607.38;10125844;29;20596;-76
2023/07/29 15:18:37;;;;;;;7.28;3.25;;;;;;;15.77;100.00;99610.41;10122425;29;20051;-76
2023/07/29 15:23:42;;;;;;;7.28;4.05;;;;;;;14.83;100.00;99615.56;10117985;29;20106;-75
2023/07/29 15:28:44;;;;;;;11.65;4.70;;;;;;;14.53;100.00;99636.03;10126146;29;21171;-75
2023/07/29 15:33:47;;;;;;;4.78;4.10;;;;;;;14.69;100.00;99649.53;10126200;29;20044;-75
2023/07/29 15:38:52;;;;;;;7.75;6.32;;;;;;;15.24;100.00;99639.84;10119314;29;20674;-77
2023/07/29 15:43:55;;;;;;;7.72;6.20;;;;;;;16.01;100.00;99637.38;10118058;29;20055;-77
2023/07/29 15:48:59;;;;;;;7.35;6.50;;;;;;;16.17;100.00;99635.59;10118303;29;20048;-77
2023/07/29 15:54:04;;;;;;;7.90;5.80;;;;;;;16.11;100.00;99637.16;10118628;29;20052;-76
2023/07/29 15:59:07;;;;;;;5.53;5.13;;;;;;;16.30;100.00;99647.56;10119409;29;20535;-76
2023/07/29 16:04:09;;;;;;;5.28;4.63;;;;;;;16.32;100.00;99658.25;10119819;29;20056;-76
2023/07/29 16:09:14;;;;;;;6.47;5.55;;;;;;;16.43;100.00;99657.81;10112347;29;20064;-76
2023/07/29 16:14:17;;;;;;;4.85;4.40;;;;;;;17.03;100.00;99648.00;10117930;29;20071;-76
2023/07/29 16:19:24;;;;;;;4.13;3.55;;;;;;;17.14;100.00;99657.59;10119919;29;20052;-76
2023/07/29 16:24:29;;;;;;;4.25;3.05;;;;;;;17.23;100.00;99629.34;10120887;29;20063;-77
2023/07/29 16:29:32;;;;;;;2.80;2.50;;;;;;;17.09;100.00;99628.28;10126970;29;20095;-76
2023/07/29 16:34:34;;;;;;;3.22;1.83;;;;;;;17.79;98.20;99623.41;10119376;29;20072;-76
2023/07/29 16:39:39;;;;;;;3.25;1.73;;;;;;;17.77;98.34;99620.91;10115678;29;20056;-77
2023/07/29 16:44:41;;;;;;;3.72;1.33;;;;;;;17.35;93.96;99618.88;10109868;29;20048;-77
2023/07/29 16:49:45;;;;;;;3.20;1.85;;;;;;;18.34;100.00;99619.25;10109714;29;21085;-77
2023/07/29 16:54:49;;;;;;;2.08;1.30;;;;;;;18.97;96.21;99600.38;10120929;29;20052;-78
2023/07/29 16:59:52;;;;;;;2.20;1.35;;;;;;;20.99;95.97;99608.03;10128001;29;20060;-77
2023/07/29 17:04:55;;;;;;;2.70;1.52;;;;;;;23.71;85.15;99608.28;10131872;29;20084;-77
2023/07/29 17:09:59;;;;;;;1.52;1.30;;;;;;;23.96;78.87;99607.38;10131951;29;20055;-78
2023/07/29 17:15:02;;;;;;;2.55;1.33;;;;;;;25.86;69.06;99605.44;10130112;29;20067;-78
2023/07/29 17:20:07;;;;;;;1.65;1.20;;;;;;;26.69;68.48;99598.50;10134517;29;20051;-76
2023/07/29 17:25:11;;;;;;;2.42;1.13;;;;;;;26.66;57.17;99606.44;10133889;29;20054;-77
2023/07/29 17:30:14;;;;;;;2.47;1.13;;;;;;;28.03;52.10;99607.66;10173679;29;20089;-77
2023/07/29 17:35:17;;;;;;;2.75;1.58;;;;;;;27.36;51.17;99610.59;10129289;29;20055;-78
2023/07/29 17:40:21;;;;;;;1.73;1.20;;;;;;;27.84;51.89;99607.13;10127913;29;20055;-78
2023/07/29 17:45:24;;;;;;;2.33;1.50;;;;;;;28.88;46.63;99604.31;10135179;29;20052;-78
2023/07/29 17:50:32;;;;;;;1.20;1.10;;;;;;;26.46;49.14;99606.91;10113307;29;20412;-78
2023/07/29 17:55:38;;;;;;;2.75;1.00;;;;;;;23.70;56.83;99614.84;10119187;29;20183;-78
2023/07/29 18:00:41;;;;;;;1.20;1.10;;;;;;;25.04;52.91;99627.53;10128430;29;20059;-78
2023/07/29 18:05:44;;;;;;;1.15;1.05;;;;;;;24.38;53.20;99632.09;10123935;29;20050;-77
2023/07/29 18:10:49;;;;;;;1.75;1.13;;;;;;;22.22;60.01;99632.72;10118973;29;20063;-77
2023/07/29 18:15:53;;;;;;;2.88;1.10;;;;;;;20.68;64.84;99633.22;10129781;29;20171;-77
2023/07/29 18:20:55;;;;;;;1.58;1.10;;;;;;;19.76;68.18;99634.63;10131421;29;20063;-76
2023/07/29 18:26:00;;;;;;;1.20;1.10;;;;;;;19.41;70.31;99635.44;10133487;29;20188;-76
2023/07/29 18:31:03;;;;;;;3.53;1.35;;;;;;;19.19;70.69;99633.84;10129476;29;20060;-77
2023/07/29 18:36:06;;;;;;;1.58;1.42;;;;;;;19.07;71.34;99638.16;10130975;29;20052;-76
2023/07/29 18:41:10;;;;;;;1.73;1.27;;;;;;;18.75;72.25;99640.38;10122650;29;20160;-75
2023/07/29 18:46:13;;;;;;;2.53;1.10;;;;;;;18.63;72.63;99648.22;10113706;29;20060;-77
2023/07/29 18:51:16;;;;;;;2.20;2.00;;;;;;;18.48;73.00;99653.69;10128727;29;20165;-75
2023/07/29 18:56:20;;;;;;;4.32;1.80;;;;;;;18.20;74.47;99675.38;10123291;29;20119;-75
2023/07/29 19:01:23;;;;;;;2.63;1.80;;;;;;;17.96;74.95;99679.22;10122191;29;20052;-76
2023/07/29 19:06:26;;;;;;;3.95;2.13;;;;;;;17.86;75.20;99687.69;10130045;29;20049;-77
2023/07/29 19:11:30;;;;;;;5.40;1.67;;;;;;;17.69;76.05;99695.19;10119710;29;20070;-77
2023/07/29 19:16:33;;;;;;;2.22;1.35;;;;;;;17.77;76.18;99683.38;10122677;29;20096;-76
2023/07/29 19:21:36;;;;;;;2.10;1.85;;;;;;;17.85;75.56;99688.72;10126874;29;20044;-76
2023/07/29 19:26:41;;;;;;;1.80;1.48;;;;;;;17.81;75.49;99684.69;10115122;29;20045;-76
2023/07/29 19:31:44;;;;;;;6.03;1.85;;;;;;;17.74;76.53;99686.44;10118015;29;20052;-76
2023/07/29 19:36:47;;;;;;;1.73;1.50;;;;;;;17.69;76.77;99687.03;10122363;29;20052;-77
2023/07/29 19:41:51;;;;;;;4.90;1.80;;;;;;;17.77;76.72;99677.09;10118859;29;20048;-77
2023/07/29 19:46:54;;;;;;;1.80;1.45;;;;;;;17.82;76.58;99689.06;10114192;29;20055;-75
2023/07/29 19:52:00;;;;;;;2.13;1.85;;;;;;;17.90;76.29;99679.97;10112071;29;20056;-75
2023/07/29 19:57:06;;;;;;;1.73;1.60;;;;;;;17.91;76.53;99690.66;10115680;29;20048;-76
2023/07/29 20:02:09;;;;;;;3.70;1.77;;;;;;;17.89;76.35;99689.16;10126890;29;20501;-76
2023/07/29 20:07:12;;;;;;;3.50;1.80;;;;;;;17.87;76.83;99680.38;10123155;29;20052;-76
2023/07/29 20:12:17;;;;;;;6.10;2.13;;;;;;;17.80;76.79;99693.88;10125142;29;20135;-75
2023/07/29 20:17:19;;;;;;;3.40;2.20;;;;;;;17.71;76.98;99692.25;10125515;29;20080;-76
2023/07/29 20:22:22;;;;;;;2.17;1.98;;;;;;;17.67;76.89;99690.97;10124100;29;20460;-76
2023/07/29 20:27:26;;;;;;;3.38;2.00;;;;;;;17.61;77.40;99694.44;10121846;29;20044;-74
2023/07/29 20:32:30;;;;;;;2.25;2.05;;;;;;;17.61;77.37;99695.28;10124588;29;20103;-77
2023/07/29 20:37:33;;;;;;;3.58;2.47;;;;;;;17.65;77.11;99691.13;10122944;29;20055;-75
2023/07/29 20:42:37;;;;;;;3.83;2.17;;;;;;;17.68;77.01;99688.03;10118408;29;20056;-78
2023/07/29 20:47:40;;;;;;;2.75;1.83;;;;;;;17.70;77.29;99680.56;10119107;29;20044;-75
2023/07/29 20:52:43;;;;;;;3.22;2.03;;;;;;;17.75;77.31;99676.44;10116665;29;20796;-76
2023/07/29 20:57:47;;;;;;;4.50;2.40;;;;;;;17.79;76.97;99675.88;10112396;29;20044;-75
2023/07/29 21:02:50;;;;;;;5.32;3.15;;;;;;;17.83;76.89;99665.50;10117612;29;20424;-76
2023/07/29 21:07:53;;;;;;;2.45;2.25;;;;;;;17.83;76.74;99663.59;10119246;29;20051;-76
2023/07/29 21:12:58;;;;;;;3.13;2.60;;;;;;;17.82;76.93;99663.78;10122535;29;20052;-77
2023/07/29 21:18:01;;;;;;;3.35;2.88;;;;;;;17.76;76.80;99659.94;10120090;29;20060;-76
2023/07/29 21:23:04;;;;;;;2.70;1.92;;;;;;;17.67;77.13;99659.22;10115863;29;20076;-76
2023/07/29 21:28:08;;;;;;;3.50;2.33;;;;;;;17.64;77.15;99654.16;10120147;29;21564;-75
2023/07/29 21:33:11;;;;;;;5.25;2.53;;;;;;;17.60;77.41;99658.25;10117578;29;20056;-75
2023/07/29 21:38:14;;;;;;;13.27;3.38;;;;;;;17.56;77.51;99667.00;10108887;29;20052;-77
2023/07/29 21:43:33;;;;;;;7.25;2.63;;;;;;;17.44;77.58;99662.03;10108260;29;20120;-76
2023/07/29 21:48:36;;;;;;;3.97;2.60;;;;;;;17.45;77.83;99671.03;10103838;29;20052;-76
2023/07/29 21:53:39;;;;;;;3.15;2.70;;;;;;;17.43;77.61;99673.06;10110782;29;20059;-76
2023/07/29 21:58:43;;;;;;;4.60;2.65;;;;;;;17.42;77.93;99671.41;10113222;29;20052;-75
2023/07/29 22:03:46;;;;;;;5.28;2.15;;;;;;;17.37;77.79;99669.22;10114742;29;20080;-75
2023/07/29 22:08:49;;;;;;;5.32;3.13;;;;;;;17.25;78.42;99676.13;10117956;29;20051;-75
2023/07/29 22:13:53;;;;;;;4.03;2.47;;;;;;;17.23;78.26;99662.75;10117720;29;20067;-76
2023/07/29 22:18:56;;;;;;;4.75;2.40;;;;;;;17.20;78.60;99676.69;10116964;29;20052;-76
2023/07/29 22:23:59;;;;;;;3.03;2.83;;;;;;;17.20;79.38;99673.16;10114941;29;20409;-75
2023/07/29 22:29:04;;;;;;;3.50;2.88;;;;;;;17.26;79.32;99672.41;10117799;29;20267;-76
2023/07/29 22:34:07;;;;;;;4.45;2.88;;;;;;;17.32;79.53;99677.09;10124775;29;20075;-76
2023/07/29 22:39:10;;;;;;;3.47;3.17;;;;;;;17.33;79.70;99672.50;10128409;29;20059;-76
2023/07/29 22:44:14;;;;;;;5.18;3.05;;;;;;;17.36;79.92;99689.28;10122754;29;20060;-75
2023/07/29 22:49:17;;;;;;;6.88;3.50;;;;;;;17.42;79.75;99676.81;10119573;29;20217;-75
2023/07/29 22:54:19;;;;;;;4.13;3.83;;;;;;;17.38;79.35;99676.34;10116975;29;20536;-77
2023/07/29 22:59:25;;;;;;;8.75;3.67;;;;;;;17.34;79.41;99690.47;10112750;29;20047;-75
2023/07/29 23:04:27;;;;;;;4.70;3.63;;;;;;;17.29;79.50;99693.75;10118323;29;20055;-76
2023/07/29 23:09:30;;;;;;;4.93;3.80;;;;;;;17.12;80.63;99698.44;10115547;29;20059;-77
2023/07/29 23:14:34;;;;;;;4.10;3.67;;;;;;;17.09;81.32;99697.97;10114161;29;20060;-77
2023/07/29 23:19:37;;;;;;;7.03;4.00;;;;;;;17.09;82.37;99711.56;10116666;29;20052;-75
2023/07/29 23:24:40;;;;;;;5.00;4.25;;;;;;;17.08;82.45;99707.97;10112910;29;20048;-75
2023/07/29 23:29:44;;;;;;;5.35;4.85;;;;;;;16.72;84.57;99702.34;10113792;29;20072;-75
2023/07/29 23:34:47;;;;;;;8.27;5.22;;;;;;;16.72;83.92;99707.75;10112081;29;20200;-76